Tiempo atmosférico en la estación meteorológica de Ledesma, Salamanca (790 m.)



Fecha
DESCASC
Temp. máxima en grados centígrados (hora)
DESCASC
Temp. mínima en grados centígrados (hora)
DESCASC
Temp. media en grados centígrados
DESCASC
Racha de viento máxima en m/sg (hora)
DESCASC
Velocidad máxima media en intervalos de 10 minutos(hora)
DESCASC
Precipitaciones diarias en mm
DESCASC
Precipitaciones de 00:00 a 06:00 en mm
DESCASC
Precipitaciones de 06:00 a 12:00 en mm
DESCASC
Precipitaciones de 12:00 a 18:00 en mm
DESCASC
Precipitaciones de 18:00 a 24:00 en mm
DESCASC
16-04-2019 18.1 (18:30) -0.4 (07:20) 8.9 7.22 (15:00) 3.89 (18:40) 0.2 0 0.2 0 0
15-04-2019 17.7 (12:30) 8 (23:59) 12.9 16.39 (14:50) 9.17 (14:40) 0.6 0 0 0.2 0.4
14-04-2019 18.6 (18:00) 10.2 (00:00) 14.4 5.83 (15:20) 3.61 (15:20) 0 0 0 0 0
13-04-2019 19.8 (17:40) 1.9 (00:00) 10.8 8.06 (20:50) 4.44 (19:40) 0 0 0 0 0
12-04-2019 16 (17:30) -0.6 (-00:0) 7.7 7.22 (02:30) 5 (02:30) 0 0 0 0 0
11-04-2019 13.5 (18:10) 0.4 (00:00) 7 5.56 (17:00) 3.89 (02:00) 0.2 0 0 0.2 0
10-04-2019 13.6 (17:40) 4.5 (00:00) 9.1 11.39 (17:50) 6.39 (17:40) 6 0 0 0.2 5.8
09-04-2019 10.5 (15:40) 4.2 (00:00) 7.3 12.5 (17:30) 6.94 (16:10) 2.2 0 1.2 0 1
08-04-2019 11.6 (16:30) 6 (00:00) 8.8 14.17 (17:10) 7.22 (17:10) 2 0.8 0.6 0.4 0.2
07-04-2019 8.5 (23:00) 2.2 (00:00) 5.4 9.17 (02:10) 5 (22:40) 5.6 0.6 0 2.6 2.4
06-04-2019 8.6 (18:30) 2.1 (00:00) 5.4 15.83 (17:00) 8.61 (13:50) 2.2 0 1 0.6 0.6
05-04-2019 9.6 (17:10) 2.3 (00:00) 6 11.67 (18:10) 6.39 (16:20) 3.4 1.4 0 0.4 1.6
04-04-2019 10.1 (15:50) -5.8 (-00:0) 2.2 10.83 (18:10) 5.83 (17:30) 0.6 0 0 0 0.6
03-04-2019 12.1 (15:40) 0.3 (04:50) 6.2 11.94 (16:30) 6.39 (16:30) 0 0 0 0 0
02-04-2019 17.1 (18:00) 5.2 (00:00) 11.2 9.44 (18:50) 5.83 (18:50) 0 0 0 0 0
01-04-2019 17.1 (17:00) 3.4 (00:00) 10.3 10 (19:40) 5 (00:10) 0 0 0 0 0
31-03-2019 17.4 (18:00) 4.4 (00:00) 10.9 9.17 (08:40) 6.94 (09:00) 0 0 0 0 0
30-03-2019 18.7 (16:00) 0.5 (00:00) 9.6 5.83 (16:30) 4.17 (22:30) 0 0 0 0 0
29-03-2019 18.3 (17:10) 2.4 (00:00) 10.3 8.89 (03:50) 6.94 (03:50) 0 0 0 0 0
28-03-2019 16.5 (15:50) 0 (00:00) 8.3 12.22 (15:00) 6.94 (00:10) 0 0 0 0 0
27-03-2019 17.7 (17:20) 0.1 (00:00) 8.9 13.89 (03:00) 8.61 (03:50) 0 0 0 0 0
26-03-2019 17.4 (17:00) 1 (00:00) 9.2 13.61 (23:00) 9.17 (09:20) 0 0 0 0 0
25-03-2019 16.4 (15:50) 4.3 (00:00) 10.3 12.78 (17:00) 8.89 (16:50) 0 0 0 0 0
24-03-2019 19.3 (16:50) 4.3 (00:00) 11.8 10.28 (13:20) 7.22 (13:20) 0 0 0 0 0
23-03-2019 18.7 (16:30) -0.3 (00:00) 9.2 9.17 (14:40) 5.28 (06:00) 0 0 0 0 0
22-03-2019 16 (15:10) -2.2 (-00:0) 6.9 6.39 (16:00) 4.17 (22:10) 0 0 0 0 0
21-03-2019 13.5 (16:10) -1 (-00:0) 6.3 8.89 (06:00) 6.11 (07:30) 0 0 0 0 0
20-03-2019 12.5 (16:10) -0.1 (00:00) 6.2 12.22 (11:40) 8.33 (11:40) 0 0 0 0 0
19-03-2019 12.9 (17:20) -0.1 (00:00) 6.4 10.28 (13:50) 5.83 (12:40) 0 0 0 0 0

Gráficas

Temp. máximas Temp. mínimas Temp. medias Precipitaciones Rachas de viento máximas Velocidades máximas media en intervalos de 10 minutos

Datos horarios

Fecha y hora oficial Temperatura (ºC) Velocidad del viento (km/h) Dirección del viento Racha (km/h) Dirección de racha Precipitación (mm) Presión (hPa) Tendencia (hPa) Humedad (%)
2019-04-17 23:00:00 8.9 8 Sur 15 Sur 0.4 -- -- 94
2019-04-17 22:00:00 9.1 7 Sur 23 Sudoeste 1 -- -- 94
2019-04-17 21:00:00 9.3 11 Sudoeste 33 Oeste 2.2 -- -- 94
2019-04-17 20:00:00 10.4 17 Oeste 42 Sudoeste 0.4 -- -- 91
2019-04-17 19:00:00 15.8 24 Sudoeste 41 Sur 0 -- -- 53
2019-04-17 18:00:00 16.8 23 Sur 45 Sur 0 -- -- 50
2019-04-17 17:00:00 17 14 Sur 50 Sudoeste 0 -- -- 48
2019-04-17 16:00:00 17.1 28 Sur 45 Sur 0 -- -- 46
2019-04-17 15:00:00 16.6 22 Sur 39 Sur 0 -- -- 51
2019-04-17 14:00:00 16 22 Sudoeste 35 Sur 0 -- -- 52
2019-04-17 13:00:00 15.6 15 Sur 35 Sudoeste 0 -- -- 56
2019-04-17 12:00:00 14.7 10 Sudoeste 21 Sur 0 -- -- 63
2019-04-17 11:00:00 13.8 6 Oeste 15 Sur 0 -- -- 63
2019-04-17 10:00:00 13 5 Sur 17 Sudoeste 0 -- -- 64
2019-04-17 09:00:00 10.7 2 Oeste 13 Sudoeste 0 -- -- 74
2019-04-17 08:00:00 10.8 6 Sudeste 13 Sudeste 0 -- -- 68
2019-04-17 07:00:00 8.4 3 Sudeste 8 Sudeste 0 -- -- 75
2019-04-17 06:00:00 8.4 3 Sur 6 Sur 0 -- -- 74
2019-04-17 05:00:00 10.2 3 Sur 10 Sudeste 0 -- -- 66
2019-04-17 04:00:00 9.8 6 Este 15 Este 0 -- -- 70
2019-04-17 03:00:00 9.2 4 Sudeste 10 Este 0 -- -- 74
2019-04-17 02:00:00 9.9 3 Sur 17 Este 0 -- -- 68
2019-04-17 01:00:00 11.4 11 Este 15 Este 0 -- -- 62
2019-04-17 00:00:00 7.8 5 Este 8 Este 0 -- -- 81
2019-04-16 23:00:00 7.9 4 Nordeste 6 Nordeste 0 -- -- 80
2019-04-16 22:00:00 9.5 4 Nordeste 5 Nordeste 0 -- -- 76
2019-04-16 21:00:00 12.2 0 Calma 9 Sudoeste 0 -- -- 68
2019-04-16 20:00:00 16.9 6 Sudoeste 14 Sur 0 -- -- 40
2019-04-16 19:00:00 17.5 9 Sur 24 Sudoeste 0 -- -- 35
2019-04-16 18:00:00 17.8 10 Sudoeste 19 Sudoeste 0 -- -- 37
2019-04-16 17:00:00 17.4 11 Sudoeste 19 Sur 0 -- -- 49
2019-04-16 16:00:00 17.4 7 Sur 22 Sudoeste 0 -- -- 44
2019-04-16 15:00:00 16.6 11 Sur 26 Sudoeste 0 -- -- 56
2019-04-16 14:00:00 15.4 11 Sur 21 Sur 0 -- -- 48
2019-04-16 13:00:00 13.9 10 Sudeste 22 Sudeste 0 -- -- 58
2019-04-16 12:00:00 12.5 10 Sudeste 21 Sudeste 0.2 -- -- 68
2019-04-16 11:00:00 10.4 13 Sudeste 19 Este 0 -- -- 79
2019-04-16 10:00:00 8.7 4 Este 9 Este 0 -- -- 89
2019-04-16 09:00:00 3.4 4 Este 6 Sudeste 0 -- -- 100
2019-04-16 08:00:00 -0.1 3 Nordeste 4 Nordeste 0 -- -- 100
2019-04-16 07:00:00 0.4 0 Calma 5 Nordeste 0 -- -- 99
2019-04-16 06:00:00 1.2 0 Calma 4 Sudeste 0 -- -- 100
2019-04-16 05:00:00 1.4 2 Sudeste 4 Sudeste 0 -- -- 99
2019-04-16 04:00:00 1.7 2 Sudeste 5 Nordeste 0 -- -- 97
2019-04-16 03:00:00 1.7 3 Este 7 Sudeste 0 -- -- 97
2019-04-16 02:00:00 3.2 0 Calma 4 Sudoeste 0 -- -- 93
2019-04-16 01:00:00 5.8 4 Sur 9 Sudeste 0 -- -- 91
2019-04-16 00:00:00 8 4 Oeste 15 Oeste 0 -- -- 84
2019-04-15 23:00:00 9.3 8 Oeste 23 Oeste 0 -- -- 81
2019-04-15 22:00:00 10.6 11 Oeste 22 Oeste 0 -- -- 78
2019-04-15 21:00:00 11.7 7 Oeste 25 Oeste 0 -- -- 78
2019-04-15 20:00:00 12.6 13 Oeste 23 Oeste 0.4 -- -- 77
2019-04-15 19:00:00 11.5 17 Oeste 33 Oeste 0 -- -- 79
2019-04-15 18:00:00 13.2 15 Oeste 30 Oeste 0 -- -- 74
2019-04-15 17:00:00 10.9 14 Oeste 50 Oeste 0.2 -- -- 83
2019-04-15 16:00:00 13.7 30 Oeste 53 Oeste 0 -- -- 59
2019-04-15 15:00:00 14.3 29 Oeste 59 Oeste 0 -- -- 66
2019-04-15 14:00:00 16.7 22 Oeste 44 Oeste 0 -- -- 65
2019-04-15 13:00:00 16 20 Oeste 48 Oeste 0 -- -- 72
2019-04-15 12:00:00 16.8 25 Sudoeste 40 Sudoeste 0 -- -- 70
2019-04-15 11:00:00 16.2 17 Sudoeste 31 Sudoeste 0 -- -- 77
2019-04-15 10:00:00 12.4 6 Sur 12 Sur 0 -- -- 92
2019-04-15 09:00:00 12.1 3 Sur 13 Sudeste 0 -- -- 91
2019-04-15 08:00:00 11.5 5 Sudeste 12 Sudeste 0 -- -- 93
2019-04-15 07:00:00 11.1 4 Sudeste 6 Sudeste 0 -- -- 93
2019-04-15 06:00:00 11.3 4 Este 9 Este 0 -- -- 93
2019-04-15 05:00:00 11.1 6 Sudeste 9 Sudeste 0 -- -- 94
2019-04-15 04:00:00 10.4 2 Este 4 Este 0 -- -- 95
2019-04-15 03:00:00 9.6 2 Este 4 Este 0 -- -- 95
2019-04-15 02:00:00 10.5 0 Calma 5 Sudeste 0 -- -- 94
2019-04-15 01:00:00 11.4 4 Sudeste 8 Sudeste 0 -- -- 91
2019-04-15 00:00:00 12.4 3 Sudeste 6 Este 0 -- -- 89
2019-04-14 23:00:00 11.5 3 Este 5 Nordeste 0 -- -- 95
2019-04-14 22:00:00 10.9 4 Nordeste 5 Nordeste 0 -- -- 90
2019-04-14 21:00:00 15 0 Calma 6 Noroeste 0 -- -- 77
2019-04-14 20:00:00 17.8 4 Noroeste 11 Oeste 0 -- -- 68
2019-04-14 19:00:00 17.9 5 Noroeste 16 Oeste 0 -- -- 67
2019-04-14 18:00:00 18.6 10 Oeste 17 Noroeste 0 -- -- 66
2019-04-14 17:00:00 17.9 6 Oeste 20 Oeste 0 -- -- 67
2019-04-14 16:00:00 17.4 9 Oeste 21 Oeste 0 -- -- 71
2019-04-14 15:00:00 17.5 8 Sudoeste 19 Oeste 0 -- -- 70
2019-04-14 14:00:00 16 5 Noroeste 14 Oeste 0 -- -- 76
2019-04-14 13:00:00 14.8 10 Oeste 19 Sudoeste 0 -- -- 87
2019-04-14 12:00:00 15.3 7 Oeste 17 Oeste 0 -- -- 80
2019-04-14 11:00:00 13.4 6 Oeste 13 Sudoeste 0 -- -- 88
2019-04-14 10:00:00 12.1 6 Sudoeste 15 Sudoeste 0 -- -- 93
2019-04-14 09:00:00 11.5 7 Sur 13 Sudoeste 0 -- -- 95
2019-04-14 08:00:00 10.8 3 Sur 6 Sudoeste 0 -- -- 96
2019-04-14 07:00:00 10.8 4 Sudoeste 6 Sur 0 -- -- 95
2019-04-14 06:00:00 10.9 2 Oeste 10 Sudoeste 0 -- -- 95
2019-04-14 05:00:00 10.2 2 Sudoeste 6 Sudoeste 0 -- -- 92
2019-04-14 04:00:00 11.4 3 Oeste 13 Oeste 0 -- -- 91
2019-04-14 03:00:00 12 5 Oeste 12 Oeste 0 -- -- 88
2019-04-14 02:00:00 12.2 6 Oeste 12 Oeste 0 -- -- 85
2019-04-14 01:00:00 12.9 5 Oeste 14 Oeste 0 -- -- 76
2019-04-14 00:00:00 13.1 4 Oeste 11 Oeste 0 -- -- 71
2019-04-13 23:00:00 14.2 2 Oeste 17 Noroeste 0 -- -- 63
2019-04-13 22:00:00 14.9 8 Oeste 23 Noroeste 0 -- -- 59
2019-04-13 21:00:00 16 14 Oeste 29 Oeste 0 -- -- 50
2019-04-13 20:00:00 17.4 9 Oeste 26 Noroeste 0 -- -- 47
2019-04-13 19:00:00 18.6 10 Oeste 26 Oeste 0 -- -- 45
2019-04-13 18:00:00 19.5 14 Oeste 22 Oeste 0 -- -- 39
2019-04-13 17:00:00 19.2 9 Oeste 23 Sudoeste 0 -- -- 41
2019-04-13 16:00:00 18.7 8 Oeste 25 Sur 0 -- -- 40
2019-04-13 15:00:00 18 10 Sur 29 Sudoeste 0 -- -- 43
2019-04-13 14:00:00 17.2 9 Sudoeste 19 Sudoeste 0 -- -- 44
2019-04-13 13:00:00 16.3 6 Sudoeste 13 Sudoeste 0 -- -- 47
2019-04-13 12:00:00 14.6 7 Sudeste 14 Sudoeste 0 -- -- 56
2019-04-13 11:00:00 11.2 4 Sudeste 8 Sudeste 0 -- -- 70
2019-04-13 10:00:00 8.4 3 Sur 7 Sudeste 0 -- -- 79
2019-04-13 09:00:00 6.4 0 Calma 4 Sudeste 0 -- -- 85
2019-04-13 08:00:00 4.9 2 Este 6 Este 0 -- -- 85
2019-04-13 07:00:00 4.2 2 Sudeste 5 Sur 0 -- -- 89
2019-04-13 06:00:00 4.2 0 Calma 4 Este 0 -- -- 89
2019-04-13 05:00:00 4.4 0 Calma 5 Este 0 -- -- 90
2019-04-13 04:00:00 3.5 3 Nordeste 20 Oeste 0 -- -- 91
2019-04-13 03:00:00 2.2 0 Calma 4 Este 0 -- -- 92
2019-04-13 02:00:00 2.3 3 Nordeste 4 Nordeste 0 -- -- 93
2019-04-13 01:00:00 3 4 Nordeste 5 Nordeste 0 -- -- 88
2019-04-13 00:00:00 3.6 3 Nordeste 4 Nordeste 0 -- -- 88
2019-04-12 23:00:00 4.5 4 Nordeste 5 Nordeste 0 -- -- 85
2019-04-12 22:00:00 5.8 3 Nordeste 6 Nordeste 0 -- -- 81
2019-04-12 21:00:00 10.7 4 Nordeste 6 Sudoeste 0 -- -- 63
2019-04-12 20:00:00 15.5 5 Noroeste 15 Oeste 0 -- -- 41
2019-04-12 19:00:00 16 9 Oeste 17 Oeste 0 -- -- 40
2019-04-12 18:00:00 15.8 8 Sudoeste 19 Noroeste 0 -- -- 43
2019-04-12 17:00:00 15.9 6 Noroeste 20 Noroeste 0 -- -- 46
2019-04-12 16:00:00 15.2 4 Sur 16 Oeste 0 -- -- 46
2019-04-12 15:00:00 13.6 6 Noroeste 15 Oeste 0 -- -- 51
2019-04-12 14:00:00 12.6 6 Noroeste 12 Norte 0 -- -- 56
2019-04-12 13:00:00 12.9 5 Sur 18 Sur 0 -- -- 59
2019-04-12 12:00:00 11.6 7 Sudeste 13 Sudeste 0 -- -- 67
2019-04-12 11:00:00 9.5 3 Sudeste 7 Este 0 -- -- 73
2019-04-12 10:00:00 5.8 2 Sudoeste 5 Sudoeste 0 -- -- 88
2019-04-12 09:00:00 2.5 0 Calma 10 Nordeste 0 -- -- 95
2019-04-12 08:00:00 0.1 5 Nordeste 9 Nordeste 0 -- -- 96
2019-04-12 07:00:00 0.1 4 Nordeste 6 Nordeste 0 -- -- 96
2019-04-12 06:00:00 2 0 Calma 8 Este 0 -- -- 89
2019-04-12 05:00:00 2.1 5 Nordeste 12 Este 0 -- -- 91
2019-04-12 04:00:00 4.4 5 Este 18 Nordeste 0 -- -- 84
2019-04-12 03:00:00 4.5 13 Nordeste 26 Nordeste 0 -- -- 86
2019-04-12 02:00:00 3.8 9 Nordeste 18 Nordeste 0 -- -- 88
2019-04-12 01:00:00 1.1 4 Nordeste 4 Nordeste 0 -- -- 94
2019-04-12 00:00:00 2.3 0 Calma 3 Nordeste 0 -- -- 88
2019-04-11 23:00:00 3.3 3 Nordeste 6 Nordeste 0 -- -- 89
2019-04-11 22:00:00 4.4 4 Nordeste 6 Nordeste 0 -- -- 84
2019-04-11 21:00:00 8.6 3 Nordeste 6 Norte 0 -- -- 73
2019-04-11 20:00:00 12 3 Norte 11 Norte 0 -- -- 56
2019-04-11 19:00:00 12.4 7 Nordeste 13 Nordeste 0 -- -- 51
2019-04-11 18:00:00 13 5 Este 14 Norte 0 -- -- 49
2019-04-11 17:00:00 13.2 9 Norte 20 Norte 0 -- -- 50
2019-04-11 16:00:00 12.2 9 Nordeste 15 Norte 0 -- -- 51
2019-04-11 15:00:00 12 4 Noroeste 13 Nordeste 0 -- -- 57
2019-04-11 14:00:00 10.6 5 Sudoeste 9 Sur 0.2 -- -- 67
2019-04-11 13:00:00 9.3 4 Sudoeste 9 Oeste 0 -- -- 71
2019-04-11 12:00:00 8.9 5 Noroeste 12 Noroeste 0 -- -- 77
2019-04-11 11:00:00 8.4 3 Sur 9 Sur 0 -- -- 81
2019-04-11 10:00:00 6.4 0 Calma 4 Este 0 -- -- 93
2019-04-11 09:00:00 2.4 0 Calma 3 Sur 0 -- -- 100
2019-04-11 08:00:00 0.6 0 Calma 9 Este 0 -- -- 97
2019-04-11 07:00:00 1.8 8 Nordeste 11 Nordeste 0 -- -- 97
2019-04-11 06:00:00 2.4 10 Nordeste 16 Nordeste 0 -- -- 98
2019-04-11 05:00:00 2.1 9 Nordeste 13 Nordeste 0 -- -- 98
2019-04-11 04:00:00 1.8 7 Nordeste 11 Nordeste 0 -- -- 95
2019-04-11 03:00:00 3.2 10 Nordeste 18 Nordeste 0 -- -- 94
2019-04-11 02:00:00 3.8 14 Nordeste 18 Nordeste 0 -- -- 93
2019-04-11 01:00:00 5.1 10 Nordeste 17 Nordeste 0 -- -- 89
2019-04-11 00:00:00 6.6 6 Norte 8 Norte 0 -- -- 94
2019-04-10 23:00:00 7.1 3 Noroeste 9 Noroeste 0 -- -- 93
2019-04-10 22:00:00 6.9 4 Noroeste 8 Oeste 0 -- -- 92
2019-04-10 21:00:00 7.1 5 Noroeste 12 Noroeste 0.4 -- -- 92
2019-04-10 20:00:00 7.1 0 Calma 12 Oeste 0.4 -- -- 92
2019-04-10 19:00:00 6.6 4 Oeste 25 Este 5 -- -- 91
2019-04-10 18:00:00 10.6 20 Este 41 Oeste 0 -- -- 64
2019-04-10 17:00:00 10.8 15 Noroeste 36 Oeste 0.2 -- -- 71
2019-04-10 16:00:00 12.4 22 Noroeste 40 Noroeste 0 -- -- 59
2019-04-10 15:00:00 10.9 20 Oeste 36 Oeste 0 -- -- 67
2019-04-10 14:00:00 10.6 21 Oeste 37 Oeste 0 -- -- 67
2019-04-10 13:00:00 10 19 Oeste 40 Oeste 0 -- -- 73
2019-04-10 12:00:00 8.6 16 Noroeste 36 Oeste 0 -- -- 74
2019-04-10 11:00:00 7.1 15 Oeste 29 Oeste 0 -- -- 84
2019-04-10 10:00:00 6.6 16 Oeste 30 Oeste 0 -- -- 89
2019-04-10 09:00:00 5.2 8 Oeste 24 Oeste 0 -- -- 97
2019-04-10 08:00:00 5 10 Oeste 23 Oeste 0 -- -- 96
2019-04-10 07:00:00 5 6 Oeste 15 Oeste 0 -- -- 96
2019-04-10 06:00:00 5.2 6 Oeste 14 Oeste 0 -- -- 95
2019-04-10 05:00:00 5.4 9 Sudoeste 17 Oeste 0 -- -- 95
2019-04-10 04:00:00 5.2 4 Sudoeste 10 Sudoeste 0 -- -- 95
2019-04-10 03:00:00 4.8 8 Sudoeste 15 Oeste 0 -- -- 96
2019-04-10 02:00:00 4.7 8 Oeste 23 Oeste 0 -- -- 93
2019-04-10 01:00:00 5 10 Oeste 22 Oeste 0 -- -- 92
2019-04-10 00:00:00 5.2 10 Oeste 23 Oeste 0 -- -- 92
2019-04-09 23:00:00 6 12 Oeste 28 Oeste 0 -- -- 93
2019-04-09 22:00:00 6.7 19 Oeste 32 Oeste 0.2 -- -- 88
2019-04-09 21:00:00 6.9 13 Oeste 31 Oeste 0.2 -- -- 90
2019-04-09 20:00:00 7.9 11 Oeste 38 Oeste 0.4 -- -- 85
2019-04-09 19:00:00 8.9 20 Oeste 42 Noroeste 0.2 -- -- 74
2019-04-09 18:00:00 10 16 Oeste 45 Oeste 0 -- -- 68
2019-04-09 17:00:00 10.1 19 Noroeste 42 Oeste 0 -- -- 65
2019-04-09 16:00:00 9.5 23 Oeste 42 Oeste 0 -- -- 67
2019-04-09 15:00:00 9.7 19 Oeste 34 Oeste 0 -- -- 68
2019-04-09 14:00:00 9 20 Oeste 40 Oeste 0 -- -- 74
2019-04-09 13:00:00 7 18 Oeste 31 Oeste 0 -- -- 84
2019-04-09 12:00:00 5.2 15 Oeste 38 Oeste 0.4 -- -- 95
2019-04-09 11:00:00 4.3 24 Oeste 40 Sudoeste 0.4 -- -- 93
2019-04-09 10:00:00 5.1 22 Sudoeste 37 Sudoeste 0.4 -- -- 92
2019-04-09 09:00:00 5.5 18 Sudoeste 33 Sudoeste 0 -- -- 92
2019-04-09 08:00:00 5 13 Sudoeste 28 Sudoeste 0 -- -- 94
2019-04-09 07:00:00 5.1 16 Sudoeste 31 Sudoeste 0 -- -- 93
2019-04-09 06:00:00 5.1 13 Sudoeste 27 Sudoeste 0 -- -- 93
2019-04-09 05:00:00 5 14 Sudoeste 30 Sudoeste 0 -- -- 92
2019-04-09 04:00:00 4.7 10 Sudoeste 19 Sudoeste 0 -- -- 92
2019-04-09 03:00:00 4.4 6 Sudoeste 19 Sudoeste 0 -- -- 90
2019-04-09 02:00:00 5.3 9 Sudoeste 24 Sudoeste 0 -- -- 90
2019-04-09 01:00:00 5.3 10 Sudoeste 26 Oeste 0 -- -- 89
2019-04-09 00:00:00 6.1 15 Oeste 28 Sudoeste 0 -- -- 87
2019-04-08 23:00:00 6.2 10 Sudoeste 24 Oeste 0 -- -- 86
2019-04-08 22:00:00 6.4 4 Oeste 19 Sudoeste 0 -- -- 84
2019-04-08 21:00:00 7.9 12 Sudoeste 22 Sudoeste 0 -- -- 78
2019-04-08 20:00:00 8.7 11 Oeste 28 Oeste 0.2 -- -- 72
2019-04-08 19:00:00 9.7 11 Oeste 25 Oeste 0 -- -- 74
2019-04-08 18:00:00 9 10 Oeste 51 Sudoeste 0.4 -- -- 80
2019-04-08 17:00:00 10.5 17 Oeste 29 Oeste 0 -- -- 61
2019-04-08 16:00:00 10.3 14 Oeste 31 Noroeste 0 -- -- 68
2019-04-08 15:00:00 9.9 13 Oeste 34 Noroeste 0 -- -- 73
2019-04-08 14:00:00 9.6 22 Noroeste 36 Sudoeste 0 -- -- 74
2019-04-08 13:00:00 10.2 17 Oeste 33 Oeste 0 -- -- 68
2019-04-08 12:00:00 9.2 17 Oeste 28 Oeste 0.2 -- -- 77
2019-04-08 11:00:00 7.7 12 Oeste 21 Oeste 0 -- -- 89
2019-04-08 10:00:00 7.9 11 Oeste 21 Sudoeste 0 -- -- 91
2019-04-08 09:00:00 6.6 9 Oeste 19 Oeste 0 -- -- 97
2019-04-08 08:00:00 6.4 10 Oeste 31 Oeste 0.2 -- -- 94
2019-04-08 07:00:00 7.2 14 Oeste 26 Oeste 0.2 -- -- 96
2019-04-08 06:00:00 7.3 11 Oeste 29 Oeste 0 -- -- 97
2019-04-08 05:00:00 8 17 Oeste 35 Sudoeste 0.4 -- -- 96
2019-04-08 04:00:00 8.2 13 Sudoeste 29 Sudoeste 0.2 -- -- 98
2019-04-08 03:00:00 8.1 19 Sudoeste 32 Sudoeste 0.2 -- -- 96
2019-04-08 02:00:00 7.9 11 Sudoeste 19 Sudoeste 0 -- -- 94
2019-04-08 01:00:00 8 13 Sudoeste 23 Sudoeste 0 -- -- 97
2019-04-08 00:00:00 8.2 12 Sudoeste 26 Sudoeste 0 -- -- 95
2019-04-07 23:00:00 8.5 18 Sudoeste 31 Sudoeste 0 -- -- 97
2019-04-07 22:00:00 8 16 Sudoeste 27 Sudoeste 0.4 -- -- 98
2019-04-07 21:00:00 7.7 14 Sudoeste 23 Sudoeste 1 -- -- 98
2019-04-07 20:00:00 7.4 8 Sur 19 Sudoeste 0.6 -- -- 96
2019-04-07 19:00:00 7.5 13 Sur 22 Sur 0.4 -- -- 94
2019-04-07 18:00:00 7.4 10 Sudoeste 19 Sur 1 -- -- 93
2019-04-07 17:00:00 7.2 6 Sudoeste 15 Oeste 0.8 -- -- 88
2019-04-07 16:00:00 7.4 13 Sudoeste 28 Oeste 0.6 -- -- 81
2019-04-07 15:00:00 8.3 10 Sudoeste 26 Oeste 0.2 -- -- 82
2019-04-07 14:00:00 8 13 Sudoeste 24 Sudoeste 0 -- -- 77
2019-04-07 13:00:00 7.5 14 Sudoeste 24 Sudoeste 0 -- -- 79
2019-04-07 12:00:00 6.6 11 Oeste 22 Sudoeste 0 -- -- 81
2019-04-07 11:00:00 5.9 10 Oeste 23 Oeste 0 -- -- 85
2019-04-07 10:00:00 5.2 7 Oeste 20 Oeste 0 -- -- 95
2019-04-07 09:00:00 3 5 Sudoeste 15 Oeste 0 -- -- 97
2019-04-07 08:00:00 2.3 5 Oeste 17 Sudoeste 0 -- -- 97
2019-04-07 07:00:00 2.7 7 Oeste 17 Oeste 0 -- -- 95
2019-04-07 06:00:00 2.8 9 Oeste 17 Oeste 0 -- -- 97
2019-04-07 05:00:00 2.6 3 Oeste 11 Oeste 0 -- -- 96
2019-04-07 04:00:00 3 8 Oeste 27 Oeste 0 -- -- 95
2019-04-07 03:00:00 3.4 12 Oeste 33 Oeste 0.2 -- -- 96
2019-04-07 02:00:00 3.5 16 Oeste 30 Oeste 0.2 -- -- 96
2019-04-07 01:00:00 3.7 12 Oeste 28 Oeste 0.2 -- -- 96
2019-04-07 00:00:00 3.8 14 Oeste 35 Oeste 0.6 -- -- 94
2019-04-06 23:00:00 3.8 10 Oeste 20 Oeste 0 -- -- 94
2019-04-06 22:00:00 3.6 4 Sudoeste 24 Oeste 0 -- -- 91
2019-04-06 21:00:00 5.2 14 Oeste 35 Oeste 0 -- -- 81
2019-04-06 20:00:00 6.6 20 Oeste 45 Oeste 0 -- -- 76
2019-04-06 19:00:00 7.7 25 Oeste 46 Oeste 0 -- -- 67
2019-04-06 18:00:00 8.2 26 Oeste 50 Oeste 0 -- -- 68
2019-04-06 17:00:00 8 27 Oeste 57 Oeste 0 -- -- 67
2019-04-06 16:00:00 6.2 26 Oeste 48 Oeste 0.2 -- -- 89
2019-04-06 15:00:00 5 28 Oeste 54 Oeste 0.2 -- -- 87
2019-04-06 14:00:00 5.5 27 Oeste 48 Sudoeste 0 -- -- 88
2019-04-06 13:00:00 4.7 22 Oeste 44 Sudoeste 0.2 -- -- 94
2019-04-06 12:00:00 3.5 24 Sudoeste 46 Sudoeste 0.2 -- -- 94
2019-04-06 11:00:00 2.5 25 Sudoeste 41 Oeste 0.4 -- -- 94
2019-04-06 10:00:00 2.8 21 Sudoeste 37 Sudoeste 0.2 -- -- 94
2019-04-06 09:00:00 2.6 19 Sudoeste 32 Oeste 0 -- -- 97
2019-04-06 08:00:00 2.7 15 Sudoeste 34 Sudoeste 0 -- -- 95
2019-04-06 07:00:00 3.1 17 Sudoeste 29 Oeste 0.2 -- -- 95
2019-04-06 06:00:00 2.8 19 Sudoeste 34 Sudoeste 0 -- -- 94
2019-04-06 05:00:00 3.3 13 Sudoeste 24 Sudoeste 0 -- -- 95
2019-04-06 04:00:00 2.6 9 Sudoeste 27 Sudoeste 0 -- -- 95
2019-04-06 03:00:00 3.1 15 Sudoeste 28 Sudoeste 0 -- -- 94
2019-04-06 02:00:00 3.1 12 Sudoeste 27 Sudoeste 0 -- -- 95
2019-04-06 01:00:00 2.6 9 Oeste 21 Oeste 0 -- -- 96
2019-04-06 00:00:00 2.9 12 Oeste 20 Oeste 0 -- -- 94
2019-04-05 23:00:00 3.1 10 Oeste 21 Oeste 0 -- -- 95
2019-04-05 22:00:00 2.6 5 Oeste 23 Oeste 0.4 -- -- 96
2019-04-05 21:00:00 2.9 17 Oeste 34 Oeste 0.2 -- -- 94
2019-04-05 20:00:00 3.7 19 Sudoeste 31 Sudoeste 0.4 -- -- 88
2019-04-05 19:00:00 5 12 Noroeste 42 Oeste 0.6 -- -- 85
2019-04-05 18:00:00 8.1 18 Oeste 36 Oeste 0 -- -- 58
2019-04-05 17:00:00 9.4 15 Oeste 36 Oeste 0 -- -- 55
2019-04-05 16:00:00 9.2 18 Oeste 32 Oeste 0.2 -- -- 54
2019-04-05 15:00:00 7.6 16 Oeste 35 Oeste 0 -- -- 63
2019-04-05 14:00:00 5.7 15 Oeste 31 Oeste 0 -- -- 73
2019-04-05 13:00:00 4.8 14 Oeste 24 Oeste 0.2 -- -- 81
2019-04-05 12:00:00 5.1 15 Oeste 27 Oeste 0 -- -- 81
2019-04-05 11:00:00 3.8 13 Oeste 28 Oeste 0 -- -- 87
2019-04-05 10:00:00 4.1 18 Oeste 30 Oeste 0 -- -- 87
2019-04-05 09:00:00 3.1 11 Sudoeste 20 Oeste 0 -- -- 94
2019-04-05 08:00:00 2.3 8 Oeste 18 Oeste 0 -- -- 95
2019-04-05 07:00:00 3.1 5 Sudoeste 17 Oeste 0 -- -- 95
2019-04-05 06:00:00 3.5 11 Oeste 38 Oeste 0.2 -- -- 95
2019-04-05 05:00:00 4.4 13 Sudoeste 40 Sudoeste 0.2 -- -- 95
2019-04-05 04:00:00 4.4 22 Sudoeste 40 Sudoeste 0 -- -- 94
2019-04-05 03:00:00 4.4 19 Sudoeste 36 Sudoeste 0.2 -- -- 93
2019-04-05 02:00:00 4.2 15 Sudoeste 31 Sudoeste 0.4 -- -- 95
2019-04-05 01:00:00 4 17 Sudoeste 33 Sur 0.4 -- -- 93
2019-04-05 00:00:00 4.2 18 Sudoeste 29 Sudoeste 0 -- -- 92
2019-04-04 23:00:00 4 9 Sur 17 Sur 0 -- -- 93
2019-04-04 22:00:00 4.1 12 Sudoeste 20 Sudoeste 0.4 -- -- 91
2019-04-04 21:00:00 4.8 10 Oeste 19 Oeste 0.2 -- -- 87
2019-04-04 20:00:00 6.3 10 Oeste 23 Oeste 0 -- -- 77
2019-04-04 19:00:00 7.1 13 Oeste 39 Oeste 0 -- -- 66
2019-04-04 18:00:00 9.2 20 Oeste 36 Oeste 0 -- -- 43
2019-04-04 17:00:00 9.7 18 Oeste 36 Sudoeste 0 -- -- 45
2019-04-04 16:00:00 10 19 Oeste 35 Sudoeste 0 -- -- 45
2019-04-04 15:00:00 9.5 17 Oeste 33 Sudoeste 0 -- -- 47
2019-04-04 14:00:00 8.4 16 Oeste 29 Sudoeste 0 -- -- 52
2019-04-04 13:00:00 7.3 9 Oeste 21 Oeste 0 -- -- 58
2019-04-04 12:00:00 5.8 10 Oeste 21 Oeste 0 -- -- 60
2019-04-04 11:00:00 4.3 9 Oeste 16 Oeste 0 -- -- 67
2019-04-04 10:00:00 2 4 Oeste 12 Oeste 0 -- -- 78
2019-04-04 09:00:00 -3 0 Calma 3 Sudoeste 0 -- -- 94
2019-04-04 08:00:00 -5.2 0 Calma 5 Norte 0 -- -- 89
2019-04-04 07:00:00 -3.1 3 Norte 6 Oeste 0 -- -- 86
2019-04-04 06:00:00 -1 3 Noroeste 10 Noroeste 0 -- -- 82
2019-04-04 05:00:00 -0.3 5 Noroeste 11 Noroeste 0 -- -- 80
2019-04-04 04:00:00 0.3 5 Noroeste 12 Noroeste 0 -- -- 78
2019-04-04 03:00:00 0.8 5 Noroeste 14 Noroeste 0 -- -- 76
2019-04-04 02:00:00 1.4 6 Noroeste 17 Noroeste 0 -- -- 73
2019-04-04 01:00:00 2.1 7 Noroeste 17 Noroeste 0 -- -- 69
2019-04-04 00:00:00 2.6 8 Norte 16 Noroeste 0 -- -- 63
2019-04-03 23:00:00 3.5 6 Norte 18 Noroeste 0 -- -- 58
2019-04-03 22:00:00 4.6 8 Norte 31 Noroeste 0 -- -- 52
2019-04-03 21:00:00 6.6 15 Noroeste 34 Noroeste 0 -- -- 48
2019-04-03 20:00:00 9.1 14 Noroeste 33 Noroeste 0 -- -- 42
2019-04-03 19:00:00 9.3 12 Noroeste 34 Norte 0 -- -- 45
2019-04-03 18:00:00 10.8 22 Noroeste 41 Noroeste 0 -- -- 40
2019-04-03 17:00:00 11.7 19 Noroeste 43 Noroeste 0 -- -- 40
2019-04-03 16:00:00 11.5 19 Noroeste 38 Noroeste 0 -- -- 40
2019-04-03 15:00:00 10.8 17 Noroeste 35 Noroeste 0 -- -- 42
2019-04-03 14:00:00 9.9 13 Oeste 33 Noroeste 0 -- -- 47
2019-04-03 13:00:00 8.6 8 Norte 18 Norte 0 -- -- 59
2019-04-03 12:00:00 7.8 8 Norte 24 Norte 0 -- -- 65
2019-04-03 11:00:00 6.4 9 Noroeste 26 Noroeste 0 -- -- 69
2019-04-03 10:00:00 4.9 10 Oeste 22 Oeste 0 -- -- 76
2019-04-03 09:00:00 3.7 5 Oeste 19 Oeste 0 -- -- 83
2019-04-03 08:00:00 3.5 8 Oeste 23 Oeste 0 -- -- 81
2019-04-03 07:00:00 3.4 10 Oeste 17 Oeste 0 -- -- 88
2019-04-03 06:00:00 1.1 3 Oeste 6 Oeste 0 -- -- 95
2019-04-03 05:00:00 0.5 3 Oeste 6 Oeste 0 -- -- 95
2019-04-03 04:00:00 0.7 2 Oeste 5 Noroeste 0 -- -- 92
2019-04-03 03:00:00 1.2 0 Calma 4 Noroeste 0 -- -- 90
2019-04-03 02:00:00 1.8 0 Calma 3 Noroeste 0 -- -- 86
2019-04-03 01:00:00 6.6 0 Calma 7 Noroeste 0 -- -- 67
2019-04-03 00:00:00 9 5 Noroeste 13 Noroeste 0 -- -- 60
2019-04-02 23:00:00 10.7 5 Noroeste 13 Noroeste 0 -- -- 52
2019-04-02 22:00:00 11 5 Noroeste 12 Noroeste 0 -- -- 45
2019-04-02 21:00:00 13.2 4 Noroeste 27 Noroeste 0 -- -- 36
2019-04-02 20:00:00 15.7 15 Noroeste 33 Oeste 0 -- -- 30
2019-04-02 19:00:00 16.6 20 Oeste 34 Oeste 0 -- -- 28
2019-04-02 18:00:00 17.1 12 Oeste 31 Oeste 0 -- -- 38
2019-04-02 17:00:00 16.8 17 Oeste 30 Oeste 0 -- -- 37
2019-04-02 16:00:00 16.4 18 Oeste 31 Oeste 0 -- -- 34
2019-04-02 15:00:00 15.7 11 Oeste 24 Oeste 0 -- -- 48
2019-04-02 14:00:00 14.6 9 Noroeste 25 Oeste 0 -- -- 53
2019-04-02 13:00:00 14 12 Noroeste 22 Oeste 0 -- -- 60
2019-04-02 12:00:00 11.4 6 Oeste 15 Oeste 0 -- -- 70
2019-04-02 11:00:00 9.8 9 Noroeste 15 Noroeste 0 -- -- 75
2019-04-02 10:00:00 8.7 4 Oeste 8 Oeste 0 -- -- 82
2019-04-02 09:00:00 7.6 2 Oeste 5 Noroeste 0 -- -- 88
2019-04-02 08:00:00 7.7 4 Noroeste 10 Oeste 0 -- -- 86
2019-04-02 07:00:00 7 3 Oeste 5 Oeste 0 -- -- 88
2019-04-02 06:00:00 7.5 2 Sur 8 Noroeste 0 -- -- 84
2019-04-02 05:00:00 8.3 3 Oeste 10 Noroeste 0 -- -- 82
2019-04-02 04:00:00 8.2 8 Oeste 14 Oeste 0 -- -- 80
2019-04-02 03:00:00 6.6 5 Oeste 9 Oeste 0 -- -- 85
2019-04-02 02:00:00 7.6 0 Calma 10 Oeste 0 -- -- 74
2019-04-02 01:00:00 9.4 5 Oeste 12 Oeste 0 -- -- 71
2019-04-02 00:00:00 10.3 7 Sudoeste 17 Oeste 0 -- -- 69
2019-04-01 23:00:00 11.7 4 Noroeste 12 Sudoeste 0 -- -- 57
2019-04-01 22:00:00 10.4 6 Sudoeste 26 Oeste 0 -- -- 71
2019-04-01 21:00:00 12 12 Oeste 28 Noroeste 0 -- -- 63
2019-04-01 20:00:00 13.8 14 Noroeste 36 Oeste 0 -- -- 53
2019-04-01 19:00:00 16.6 2 Noroeste 8 Norte 0 -- -- 39
2019-04-01 18:00:00 17.1 2 Sudeste 13 Sudeste 0 -- -- 40
2019-04-01 17:00:00 17.1 5 Nordeste 12 Este 0 -- -- 43
2019-04-01 16:00:00 15.6 6 Este 11 Este 0 -- -- 49
2019-04-01 15:00:00 15.3 3 Noroeste 15 Oeste 0 -- -- 53
2019-04-01 14:00:00 14.7 6 Nordeste 28 Este 0 -- -- 55
2019-04-01 13:00:00 13.6 4 Norte 17 Este 0 -- -- 62
2019-04-01 12:00:00 11.9 7 Este 19 Este 0 -- -- 70
2019-04-01 11:00:00 9.4 6 Nordeste 14 Nordeste 0 -- -- 78
2019-04-01 10:00:00 6.7 14 Nordeste 21 Nordeste 0 -- -- 85
2019-04-01 09:00:00 4.2 13 Nordeste 21 Nordeste 0 -- -- 92
2019-04-01 08:00:00 3.7 13 Nordeste 19 Nordeste 0 -- -- 93
2019-04-01 07:00:00 4.3 6 Nordeste 13 Nordeste 0 -- -- 91
2019-04-01 06:00:00 4.5 8 Nordeste 13 Nordeste 0 -- -- 91
2019-04-01 05:00:00 4 6 Nordeste 8 Norte 0 -- -- 90
2019-04-01 04:00:00 6.1 3 Norte 10 Sudeste 0 -- -- 81
2019-04-01 03:00:00 7.8 6 Este 14 Este 0 -- -- 79
2019-04-01 02:00:00 9.4 9 Este 19 Este 0 -- -- 71
2019-04-01 01:00:00 10.4 12 Este 26 Nordeste 0 -- -- 68
2019-04-01 00:00:00 10.6 18 Este 33 Este 0 -- -- 67
2019-03-31 23:00:00 7.2 10 Nordeste 16 Nordeste 0 -- -- 77
2019-03-31 22:00:00 8.1 8 Nordeste 11 Este 0 -- -- 68
2019-03-31 21:00:00 12.9 8 Este 25 Este 0 -- -- 50
2019-03-31 20:00:00 15.6 15 Nordeste 24 Nordeste 0 -- -- 41
2019-03-31 19:00:00 16.1 10 Nordeste 24 Nordeste 0 -- -- 37
2019-03-31 18:00:00 17.4 8 Nordeste 19 Nordeste 0 -- -- 32
2019-03-31 17:00:00 16.7 9 Nordeste 23 Nordeste 0 -- -- 34
2019-03-31 16:00:00 16.1 5 Noroeste 18 Nordeste 0 -- -- 38
2019-03-31 15:00:00 14.9 13 Nordeste 26 Este 0 -- -- 48
2019-03-31 14:00:00 17 10 Sudeste 22 Este 0 -- -- 46
2019-03-31 13:00:00 14.4 13 Este 24 Nordeste 0 -- -- 52
2019-03-31 12:00:00 11.7 20 Nordeste 30 Nordeste 0 -- -- 55
2019-03-31 11:00:00 9.4 21 Nordeste 27 Este 0 -- -- 59
2019-03-31 10:00:00 7.2 11 Este 32 Nordeste 0 -- -- 64
2019-03-31 09:00:00 5 25 Nordeste 33 Nordeste 0 -- -- 73
2019-03-31 08:00:00 4.6 23 Nordeste 32 Nordeste 0 -- -- 76
2019-03-31 07:00:00 5.1 15 Nordeste 27 Este 0 -- -- 76
2019-03-31 06:00:00 5.3 8 Sudeste 27 Nordeste 0 -- -- 72
2019-03-31 05:00:00 6.2 10 Nordeste 24 Nordeste 0 -- -- 70
2019-03-31 03:00:00 6.1 7 Nordeste 14 Nordeste 0 -- -- 68
2019-03-31 01:00:00 5.4 11 Nordeste 16 Nordeste 0 -- -- 66
2019-03-31 00:00:00 8.4 4 Este 18 Nordeste 0 -- -- 52
2019-03-30 23:00:00 11.8 14 Nordeste 21 Este 0 -- -- 42
2019-03-30 22:00:00 11.9 13 Este 18 Este 0 -- -- 43
2019-03-30 21:00:00 7.2 9 Nordeste 12 Este 0 -- -- 68
2019-03-30 20:00:00 11.4 4 Nordeste 8 Nordeste 0 -- -- 58
2019-03-30 19:00:00 16.1 2 Sudeste 8 Este 0 -- -- 37
2019-03-30 18:00:00 16.3 5 Este 14 Nordeste 0 -- -- 32
2019-03-30 17:00:00 16.4 10 Nordeste 21 Este 0 -- -- 37
2019-03-30 16:00:00 18.7 9 Sudeste 17 Sudeste 0 -- -- 32
2019-03-30 15:00:00 18.2 4 Noroeste 14 Este 0 -- -- 32
2019-03-30 14:00:00 17.8 5 Sudoeste 15 Sudeste 0 -- -- 37
2019-03-30 13:00:00 16.9 4 Norte 13 Noroeste 0 -- -- 37
2019-03-30 12:00:00 15.6 6 Oeste 13 Oeste 0 -- -- 39
2019-03-30 11:00:00 13.9 4 Oeste 9 Oeste 0 -- -- 38
2019-03-30 10:00:00 10.2 3 Sur 6 Sudeste 0 -- -- 54
2019-03-30 09:00:00 6.1 3 Sudeste 6 Sudeste 0 -- -- 66
2019-03-30 08:00:00 2.9 2 Sudeste 4 Sudeste 0 -- -- 78
2019-03-30 07:00:00 1.8 3 Sudeste 8 Sudeste 0 -- -- 76
2019-03-30 06:00:00 2.3 4 Este 7 Este 0 -- -- 74
2019-03-30 05:00:00 0.9 2 Nordeste 7 Sudeste 0 -- -- 81
2019-03-30 04:00:00 2.5 3 Nordeste 4 Este 0 -- -- 77
2019-03-30 03:00:00 4.2 3 Sudeste 5 Sudeste 0 -- -- 64
2019-03-30 02:00:00 5.4 0 Calma 12 Oeste 0 -- -- 62
2019-03-30 01:00:00 7.4 5 Oeste 13 Oeste 0 -- -- 54
2019-03-30 00:00:00 2.8 0 Calma 5 Sudoeste 0 -- -- 76
2019-03-29 23:00:00 4.6 2 Sur 16 Sur 0 -- -- 69
2019-03-29 22:00:00 3.7 3 Nordeste 5 Nordeste 0 -- -- 75
2019-03-29 21:00:00 6.2 4 Nordeste 5 Nordeste 0 -- -- 62
2019-03-29 20:00:00 11.2 2 Noroeste 10 Noroeste 0 -- -- 52
2019-03-29 19:00:00 17.5 3 Noroeste 13 Oeste 0 -- -- 30
2019-03-29 18:00:00 17.7 7 Sudoeste 14 Noroeste 0 -- -- 31
2019-03-29 17:00:00 18.2 5 Oeste 18 Sudoeste 0 -- -- 31
2019-03-29 16:00:00 17.7 6 Norte 26 Oeste 0 -- -- 31
2019-03-29 15:00:00 17.3 9 Sudoeste 22 Oeste 0 -- -- 31
2019-03-29 14:00:00 16.6 6 Noroeste 17 Oeste 0 -- -- 37
2019-03-29 13:00:00 15.6 7 Sudoeste 18 Oeste 0 -- -- 40
2019-03-29 12:00:00 14.7 8 Noroeste 15 Noroeste 0 -- -- 46
2019-03-29 11:00:00 12.9 4 Oeste 16 Norte 0 -- -- 51
2019-03-29 10:00:00 10 2 Sur 14 Nordeste 0 -- -- 60
2019-03-29 09:00:00 6 11 Nordeste 15 Nordeste 0 -- -- 71
2019-03-29 08:00:00 3.3 5 Este 18 Nordeste 0 -- -- 77
2019-03-29 07:00:00 2.9 14 Nordeste 26 Nordeste 0 -- -- 78
2019-03-29 06:00:00 3.5 19 Nordeste 32 Nordeste 0 -- -- 77
2019-03-29 05:00:00 4.3 22 Nordeste 30 Nordeste 0 -- -- 76
2019-03-29 04:00:00 4.9 23 Nordeste 32 Nordeste 0 -- -- 74
2019-03-29 03:00:00 4.9 13 Este 28 Nordeste 0 -- -- 73
2019-03-29 02:00:00 5.5 18 Nordeste 27 Nordeste 0 -- -- 71
2019-03-29 01:00:00 6.4 12 Este 23 Nordeste 0 -- -- 66
2019-03-29 00:00:00 7 17 Nordeste 22 Nordeste 0 -- -- 63
2019-03-28 23:00:00 7.4 10 Nordeste 18 Nordeste 0 -- -- 59
2019-03-28 22:00:00 9.8 12 Nordeste 22 Nordeste 0 -- -- 49
2019-03-28 21:00:00 9.6 13 Nordeste 16 Nordeste 0 -- -- 52
2019-03-28 20:00:00 10.4 10 Nordeste 18 Nordeste 0 -- -- 48
2019-03-28 19:00:00 14.6 15 Nordeste 23 Nordeste 0 -- -- 35
2019-03-28 18:00:00 15.9 15 Nordeste 28 Nordeste 0 -- -- 34
2019-03-28 17:00:00 16.4 17 Nordeste 29 Nordeste 0 -- -- 34
2019-03-28 16:00:00 16.4 15 Nordeste 28 Nordeste 0 -- -- 31
2019-03-28 15:00:00 15.8 18 Nordeste 44 Este 0 -- -- 34
2019-03-28 14:00:00 14.7 21 Nordeste 29 Nordeste 0 -- -- 41
2019-03-28 13:00:00 13 18 Nordeste 30 Nordeste 0 -- -- 49
2019-03-28 12:00:00 11.1 17 Este 31 Nordeste 0 -- -- 50
2019-03-28 11:00:00 9.3 19 Nordeste 26 Nordeste 0 -- -- 53
2019-03-28 10:00:00 7.4 18 Nordeste 28 Este 0 -- -- 58
2019-03-28 09:00:00 4.4 17 Este 25 Este 0 -- -- 61
2019-03-28 08:00:00 1.4 14 Este 19 Nordeste 0 -- -- 70
2019-03-28 07:00:00 0.3 5 Este 17 Este 0 -- -- 70
2019-03-28 06:00:00 1.4 12 Este 19 Este 0 -- -- 67
2019-03-28 05:00:00 2 4 Este 26 Nordeste 0 -- -- 62
2019-03-28 04:00:00 3 19 Nordeste 28 Nordeste 0 -- -- 61
2019-03-28 03:00:00 4.1 18 Nordeste 32 Nordeste 0 -- -- 57
2019-03-28 02:00:00 4.2 3 Sur 13 Este 0 -- -- 58
2019-03-28 01:00:00 5.3 4 Este 33 Nordeste 0 -- -- 58
2019-03-28 00:00:00 6.7 25 Nordeste 37 Nordeste 0 -- -- 56
2019-03-27 23:00:00 8.1 24 Nordeste 32 Nordeste 0 -- -- 49
2019-03-27 22:00:00 10 22 Nordeste 42 Nordeste 0 -- -- 37
2019-03-27 21:00:00 11.1 17 Nordeste 28 Nordeste 0 -- -- 33
2019-03-27 20:00:00 12.3 17 Nordeste 24 Nordeste 0 -- -- 34
2019-03-27 19:00:00 15.7 19 Nordeste 33 Nordeste 0 -- -- 28
2019-03-27 18:00:00 17.4 21 Nordeste 33 Nordeste 0 -- -- 25
2019-03-27 17:00:00 17.3 15 Nordeste 37 Nordeste 0 -- -- 30
2019-03-27 16:00:00 16.5 18 Nordeste 32 Sudeste 0 -- -- 34
2019-03-27 15:00:00 15.7 19 Nordeste 30 Nordeste 0 -- -- 33
2019-03-27 14:00:00 14.9 19 Nordeste 32 Nordeste 0 -- -- 42
2019-03-27 13:00:00 13.4 17 Nordeste 30 Este 0 -- -- 41
2019-03-27 12:00:00 11.5 18 Nordeste 30 Nordeste 0 -- -- 49
2019-03-27 11:00:00 9 19 Nordeste 30 Este 0 -- -- 53
2019-03-27 10:00:00 6.9 21 Este 32 Este 0 -- -- 58
2019-03-27 09:00:00 3.8 19 Este 28 Este 0 -- -- 71
2019-03-27 08:00:00 0.9 11 Este 32 Nordeste 0 -- -- 78
2019-03-27 07:00:00 0.2 22 Nordeste 35 Nordeste 0 -- -- 78
2019-03-27 06:00:00 0.6 28 Nordeste 39 Nordeste 0 -- -- 74
2019-03-27 05:00:00 1.1 28 Nordeste 42 Nordeste 0 -- -- 70
2019-03-27 04:00:00 1.5 31 Nordeste 44 Nordeste 0 -- -- 64
2019-03-27 03:00:00 1.9 28 Nordeste 50 Nordeste 0 -- -- 58
2019-03-27 02:00:00 2.8 27 Nordeste 36 Nordeste 0 -- -- 51
2019-03-27 01:00:00 3.7 6 Este 34 Nordeste 0 -- -- 45
2019-03-27 00:00:00 4.9 26 Nordeste 39 Nordeste 0 -- -- 44
2019-03-26 23:00:00 6.6 30 Nordeste 49 Nordeste 0 -- -- 40
2019-03-26 22:00:00 8.2 28 Nordeste 43 Nordeste 0 -- -- 37
2019-03-26 21:00:00 9.7 27 Nordeste 40 Nordeste 0 -- -- 36
2019-03-26 20:00:00 11.8 26 Nordeste 40 Nordeste 0 -- -- 32
2019-03-26 19:00:00 15.4 24 Nordeste 38 Este 0 -- -- 28
2019-03-26 18:00:00 16.9 26 Este 40 Este 0 -- -- 29
2019-03-26 17:00:00 17.4 26 Este 45 Este 0 -- -- 29
2019-03-26 16:00:00 16.7 27 Este 45 Este 0 -- -- 32
2019-03-26 15:00:00 16.1 27 Este 41 Este 0 -- -- 34
2019-03-26 14:00:00 14.4 27 Este 41 Este 0 -- -- 37
2019-03-26 13:00:00 12.7 25 Este 48 Nordeste 0 -- -- 41
2019-03-26 12:00:00 10.4 30 Nordeste 45 Nordeste 0 -- -- 50
2019-03-26 11:00:00 8.6 24 Este 45 Este 0 -- -- 60
2019-03-26 10:00:00 6.1 26 Nordeste 48 Nordeste 0 -- -- 72
2019-03-26 09:00:00 4.3 27 Nordeste 45 Nordeste 0 -- -- 80
2019-03-26 08:00:00 2.5 24 Nordeste 35 Este 0 -- -- 85
2019-03-26 07:00:00 1.2 13 Este 35 Nordeste 0 -- -- 89
2019-03-26 06:00:00 1.1 21 Nordeste 32 Nordeste 0 -- -- 88
2019-03-26 05:00:00 1.2 12 Este 31 Nordeste 0 -- -- 84
2019-03-26 04:00:00 1.8 15 Este 28 Nordeste 0 -- -- 80
2019-03-26 03:00:00 2.5 21 Nordeste 33 Este 0 -- -- 77
2019-03-26 02:00:00 3.1 14 Este 26 Nordeste 0 -- -- 76
2019-03-26 01:00:00 4.1 20 Nordeste 35 Nordeste 0 -- -- 74
2019-03-26 00:00:00 5.1 17 Este 37 Nordeste 0 -- -- 69
2019-03-25 23:00:00 6.4 16 Este 38 Nordeste 0 -- -- 66
2019-03-25 22:00:00 7.7 30 Nordeste 45 Nordeste 0 -- -- 61
2019-03-25 21:00:00 8.7 25 Nordeste 39 Nordeste 0 -- -- 58
2019-03-25 20:00:00 10.6 22 Nordeste 34 Este 0 -- -- 55
2019-03-25 19:00:00 13.3 24 Nordeste 41 Nordeste 0 -- -- 44
2019-03-25 18:00:00 14.8 28 Nordeste 43 Nordeste 0 -- -- 42
2019-03-25 17:00:00 15.5 31 Nordeste 46 Nordeste 0 -- -- 39
2019-03-25 16:00:00 16.4 26 Nordeste 40 Nordeste 0 -- -- 40
2019-03-25 15:00:00 16.1 23 Nordeste 41 Nordeste 0 -- -- 40
2019-03-25 14:00:00 15.1 26 Nordeste 37 Nordeste 0 -- -- 53
2019-03-25 13:00:00 14.2 26 Nordeste 37 Nordeste 0 -- -- 54
2019-03-25 12:00:00 12.6 21 Nordeste 29 Este 0 -- -- 62
2019-03-25 11:00:00 11 18 Este 36 Este 0 -- -- 66
2019-03-25 10:00:00 8.9 15 Este 29 Este 0 -- -- 70
2019-03-25 09:00:00 5.9 22 Nordeste 31 Nordeste 0 -- -- 82
2019-03-25 08:00:00 4.5 6 Este 22 Este 0 -- -- 85
2019-03-25 07:00:00 4.6 14 Este 24 Este 0 -- -- 85
2019-03-25 06:00:00 4.8 6 Este 29 Nordeste 0 -- -- 87
2019-03-25 05:00:00 5.5 23 Nordeste 32 Nordeste 0 -- -- 87
2019-03-25 04:00:00 6.1 20 Nordeste 29 Nordeste 0 -- -- 87
2019-03-25 03:00:00 6.8 21 Nordeste 30 Nordeste 0 -- -- 84
2019-03-25 02:00:00 7.3 21 Nordeste 32 Nordeste 0 -- -- 81
2019-03-25 01:00:00 9.3 21 Nordeste 31 Este 0 -- -- 64
2019-03-25 00:00:00 11.9 17 Este 33 Este 0 -- -- 52
2019-03-24 23:00:00 12.1 22 Este 29 Este 0 -- -- 44
2019-03-24 22:00:00 10.7 14 Nordeste 17 Nordeste 0 -- -- 46
2019-03-24 21:00:00 9.6 12 Nordeste 15 Nordeste 0 -- -- 50
2019-03-24 20:00:00 10.8 8 Nordeste 17 Nordeste 0 -- -- 53
2019-03-24 19:00:00 16.9 12 Nordeste 23 Este 0 -- -- 37
2019-03-24 18:00:00 19 13 Este 31 Este 0 -- -- 32
2019-03-24 17:00:00 19.2 17 Este 32 Este 0 -- -- 28
2019-03-24 16:00:00 18.8 18 Este 35 Nordeste 0 -- -- 34
2019-03-24 15:00:00 18 20 Nordeste 36 Nordeste 0 -- -- 45
2019-03-24 14:00:00 16.8 24 Nordeste 37 Nordeste 0 -- -- 46
2019-03-24 13:00:00 16.5 21 Nordeste 30 Nordeste 0 -- -- 47
2019-03-24 12:00:00 15.3 16 Este 27 Nordeste 0 -- -- 53
2019-03-24 11:00:00 13.6 15 Nordeste 21 Nordeste 0 -- -- 59
2019-03-24 10:00:00 12.4 11 Nordeste 18 Este 0 -- -- 62
2019-03-24 09:00:00 8.2 12 Nordeste 20 Nordeste 0 -- -- 74
2019-03-24 08:00:00 5.4 14 Nordeste 21 Nordeste 0 -- -- 79
2019-03-24 07:00:00 4.9 19 Nordeste 31 Nordeste 0 -- -- 78
2019-03-24 06:00:00 5.2 15 Nordeste 20 Nordeste 0 -- -- 77
2019-03-24 05:00:00 5.1 10 Nordeste 12 Nordeste 0 -- -- 78
2019-03-24 04:00:00 8.8 5 Este 12 Este 0 -- -- 60
2019-03-24 03:00:00 6.3 5 Este 12 Nordeste 0 -- -- 75
2019-03-24 02:00:00 9.1 4 Este 12 Este 0 -- -- 62
2019-03-24 01:00:00 8.4 13 Nordeste 19 Nordeste 0 -- -- 66
2019-03-24 00:00:00 10.2 15 Nordeste 20 Nordeste 0 -- -- 58
2019-03-23 23:00:00 11.3 14 Nordeste 23 Nordeste 0 -- -- 56
2019-03-23 22:00:00 11.3 15 Nordeste 22 Nordeste 0 -- -- 56
2019-03-23 21:00:00 12.1 16 Nordeste 25 Nordeste 0 -- -- 54
2019-03-23 20:00:00 13.8 14 Nordeste 21 Nordeste 0 -- -- 50
2019-03-23 19:00:00 16.3 16 Nordeste 24 Nordeste 0 -- -- 41
2019-03-23 18:00:00 17.8 13 Este 24 Este 0 -- -- 37
2019-03-23 17:00:00 18.4 15 Este 32 Este 0 -- -- 34
2019-03-23 16:00:00 18.5 11 Este 25 Este 0 -- -- 37
2019-03-23 15:00:00 18 15 Este 33 Sudeste 0 -- -- 38
2019-03-23 14:00:00 17.3 13 Sudeste 32 Este 0 -- -- 40
2019-03-23 13:00:00 15.7 13 Este 21 Nordeste 0 -- -- 49
2019-03-23 12:00:00 13.9 14 Nordeste 22 Nordeste 0 -- -- 53
2019-03-23 11:00:00 11.6 14 Nordeste 21 Nordeste 0 -- -- 56
2019-03-23 10:00:00 8.9 13 Este 18 Este 0 -- -- 65
2019-03-23 09:00:00 5.9 9 Nordeste 21 Este 0 -- -- 71
2019-03-23 08:00:00 2.9 13 Nordeste 17 Nordeste 0 -- -- 80
2019-03-23 07:00:00 3.4 12 Este 25 Nordeste 0 -- -- 74
2019-03-23 06:00:00 3.5 19 Nordeste 27 Nordeste 0 -- -- 74
2019-03-23 05:00:00 0.8 3 Nordeste 8 Nordeste 0 -- -- 81
2019-03-23 04:00:00 0.2 2 Nordeste 5 Sudeste 0 -- -- 82
2019-03-23 03:00:00 2.9 4 Este 11 Sudeste 0 -- -- 72
2019-03-23 02:00:00 3.1 4 Sudeste 8 Sudeste 0 -- -- 71
2019-03-23 01:00:00 5.3 2 Sudeste 15 Este 0 -- -- 64
2019-03-23 00:00:00 6.9 10 Nordeste 15 Nordeste 0 -- -- 59
2019-03-22 23:00:00 7.7 12 Nordeste 17 Nordeste 0 -- -- 56
2019-03-22 22:00:00 7.9 14 Nordeste 16 Nordeste 0 -- -- 58
2019-03-22 21:00:00 7.4 10 Nordeste 15 Nordeste 0 -- -- 62
2019-03-22 20:00:00 8.7 9 Nordeste 13 Nordeste 0 -- -- 58
2019-03-22 19:00:00 13.3 12 Nordeste 18 Nordeste 0 -- -- 43
2019-03-22 18:00:00 14.9 10 Nordeste 22 Nordeste 0 -- -- 41
2019-03-22 17:00:00 15.3 11 Nordeste 22 Nordeste 0 -- -- 41
2019-03-22 16:00:00 15.5 13 Nordeste 23 Este 0 -- -- 44
2019-03-22 15:00:00 15.4 6 Noroeste 20 Nordeste 0 -- -- 42
2019-03-22 14:00:00 15.2 5 Nordeste 18 Norte 0 -- -- 43
2019-03-22 13:00:00 14.6 5 Norte 14 Oeste 0 -- -- 45
2019-03-22 12:00:00 13.1 4 Nordeste 9 Nordeste 0 -- -- 50
2019-03-22 11:00:00 10.8 5 Este 14 Nordeste 0 -- -- 60
2019-03-22 10:00:00 7.7 4 Nordeste 9 Nordeste 0 -- -- 72
2019-03-22 09:00:00 5.2 3 Sudeste 10 Este 0 -- -- 80
2019-03-22 08:00:00 0.5 4 Nordeste 7 Nordeste 0 -- -- 95
2019-03-22 07:00:00 -1.2 0 Calma 3 Este 0 -- -- 85
2019-03-22 06:00:00 1.3 4 Este 13 Nordeste 0 -- -- 83
2019-03-22 05:00:00 -0.7 5 Nordeste 9 Nordeste 0 -- -- 86
2019-03-22 04:00:00 -2.2 2 Este 4 Este 0 -- -- 88
2019-03-22 03:00:00 -1.6 4 Nordeste 8 Nordeste 0 -- -- 89
2019-03-22 02:00:00 -1.2 3 Nordeste 4 Nordeste 0 -- -- 86
2019-03-22 01:00:00 -1.2 3 Este 4 Nordeste 0 -- -- 88
2019-03-22 00:00:00 -0.8 -- -- -- -- 0 -- -- 85
2019-03-21 23:00:00 0.6 2 Este 6 Nordeste 0 -- -- 81
2019-03-21 22:00:00 1.6 5 Nordeste 8 Nordeste 0 -- -- 80
2019-03-21 21:00:00 3.2 7 Nordeste 9 Nordeste 0 -- -- 73
2019-03-21 20:00:00 5.6 6 Nordeste 11 Nordeste 0 -- -- 67
2019-03-21 19:00:00 11.6 7 Nordeste 15 Nordeste 0 -- -- 47
2019-03-21 18:00:00 12.8 10 Nordeste 17 Nordeste 0 -- -- 44
2019-03-21 17:00:00 13.1 6 Nordeste 27 Nordeste 0 -- -- 43
2019-03-21 16:00:00 13.3 6 Nordeste 19 Nordeste 0 -- -- 42
2019-03-21 15:00:00 12.9 8 Nordeste 18 Nordeste 0 -- -- 43
2019-03-21 14:00:00 11.6 10 Nordeste 21 Este 0 -- -- 48
2019-03-21 13:00:00 10.6 14 Nordeste 24 Este 0 -- -- 56
2019-03-21 12:00:00 9.4 16 Nordeste 23 Nordeste 0 -- -- 58
2019-03-21 11:00:00 7.3 15 Este 21 Este 0 -- -- 63
2019-03-21 10:00:00 4.3 11 Este 19 Este 0 -- -- 76
2019-03-21 09:00:00 1.8 11 Este 24 Este 0 -- -- 85
2019-03-21 08:00:00 -0.7 18 Nordeste 31 Nordeste 0 -- -- 93
2019-03-21 07:00:00 -0.9 20 Nordeste 28 Nordeste 0 -- -- 92
2019-03-21 06:00:00 -0.8 21 Nordeste 32 Nordeste 0 -- -- 90
2019-03-21 05:00:00 -0.6 19 Nordeste 28 Nordeste 0 -- -- 87
2019-03-21 04:00:00 -0.2 19 Nordeste 27 Nordeste 0 -- -- 84
2019-03-21 03:00:00 0.1 8 Nordeste 15 Nordeste 0 -- -- 84
2019-03-21 02:00:00 0.5 6 Este 13 Este 0 -- -- 82
2019-03-21 01:00:00 1.6 10 Nordeste 24 Nordeste 0 -- -- 79
2019-03-21 00:00:00 3.1 18 Nordeste 33 Nordeste 0 -- -- 70
2019-03-20 23:00:00 5.6 22 Nordeste 35 Nordeste 0 -- -- 59
2019-03-20 22:00:00 6.9 21 Este 31 Nordeste 0 -- -- 57
2019-03-20 21:00:00 5.6 8 Nordeste 16 Nordeste 0 -- -- 64
2019-03-20 20:00:00 7.1 9 Nordeste 24 Nordeste 0 -- -- 61
2019-03-20 19:00:00 10.5 19 Nordeste 31 Nordeste 0 -- -- 50
2019-03-20 18:00:00 11.9 21 Nordeste 31 Nordeste 0 -- -- 48
2019-03-20 17:00:00 12.3 22 Nordeste 35 Nordeste 0 -- -- 46
2019-03-20 16:00:00 12.3 18 Nordeste 34 Nordeste 0 -- -- 48
2019-03-20 15:00:00 11.4 17 Nordeste 36 Nordeste 0 -- -- 57
2019-03-20 14:00:00 10.6 21 Este 35 Nordeste 0 -- -- 57
2019-03-20 13:00:00 8.7 24 Este 36 Nordeste 0 -- -- 64
2019-03-20 12:00:00 8.7 26 Este 44 Este 0 -- -- 64
2019-03-20 11:00:00 8 25 Este 42 Este 0 -- -- 67
2019-03-20 10:00:00 6.2 19 Este 34 Este 0 -- -- 76
2019-03-20 09:00:00 3.4 6 Este 12 Este 0 -- -- 87
2019-03-20 08:00:00 0.5 8 Nordeste 12 Este 0 -- -- 95
2019-03-20 07:00:00 0.9 4 Este 15 Este 0 -- -- 91
2019-03-20 06:00:00 1.2 7 Este 15 Este 0 -- -- 91
2019-03-20 05:00:00 2.1 10 Este 16 Este 0 -- -- 90
2019-03-20 04:00:00 2.2 9 Este 13 Este 0 -- -- 88
2019-03-20 03:00:00 3.1 5 Este 16 Este 0 -- -- 84
2019-03-20 02:00:00 4.4 14 Este 28 Este 0 -- -- 80
2019-03-20 01:00:00 5 13 Este 25 Este 0 -- -- 78
2019-03-20 00:00:00 5.5 13 Este 25 Este 0 -- -- 75
2019-03-19 23:00:00 6.3 13 Este 23 Este 0 -- -- 71
2019-03-19 22:00:00 6.7 12 Nordeste 19 Este 0 -- -- 69
2019-03-19 21:00:00 7.1 11 Este 15 Nordeste 0 -- -- 68
2019-03-19 20:00:00 7.5 5 Nordeste 15 Este 0 -- -- 67
2019-03-19 19:00:00 11.9 12 Este 30 Este 0 -- -- 50
2019-03-19 18:00:00 12.8 13 Este 29 Este 0 -- -- 50
2019-03-19 17:00:00 12.7 19 Nordeste 30 Nordeste 0 -- -- 51
2019-03-19 16:00:00 12.3 15 Nordeste 34 Nordeste 0 -- -- 53
2019-03-19 15:00:00 12.2 17 Nordeste 31 Este 0 -- -- 54
2019-03-19 14:00:00 11.4 14 Nordeste 37 Nordeste 0 -- -- 60
2019-03-19 13:00:00 10.7 16 Nordeste 32 Este 0 -- -- 57
2019-03-19 12:00:00 9.5 17 Este 31 Este 0 -- -- 61
2019-03-19 11:00:00 8.3 20 Este 30 Este 0 -- -- 63
2019-03-19 10:00:00 6.9 18 Este 26 Este 0 -- -- 68
2019-03-19 09:00:00 5.4 11 Este 18 Este 0 -- -- 74
2019-03-19 08:00:00 2.3 8 Este 15 Este 0 -- -- 83
2019-03-19 07:00:00 2.1 9 Este 14 Este 0 -- -- 83
2019-03-19 06:00:00 1.3 4 Este 10 Nordeste 0 -- -- 85
2019-03-19 05:00:00 0.5 9 Nordeste 11 Nordeste 0 -- -- 89
2019-03-19 04:00:00 0.5 5 Nordeste 11 Este 0 -- -- 86
2019-03-19 03:00:00 1.5 8 Nordeste 12 Nordeste 0 -- -- 83
2019-03-19 02:00:00 2.7 5 Este 15 Nordeste 0 -- -- 77
2019-03-19 01:00:00 3 11 Nordeste 14 Nordeste 0 -- -- 76
2019-03-19 00:00:00 4 5 Este 13 Este 0 -- -- 69